createdAt,value
2018-07-11T00:00:47.350Z,15.07
2018-07-11T00:03:15.802Z,15.70
2018-07-11T00:05:44.172Z,14.63
2018-07-11T00:08:12.441Z,14.67
2018-07-11T00:10:40.657Z,13.97
2018-07-11T00:13:08.934Z,12.93
2018-07-11T00:15:37.141Z,13.43
2018-07-11T00:18:05.546Z,18.40
2018-07-11T00:20:33.772Z,12.93
2018-07-11T00:23:01.981Z,12.60
2018-07-11T00:25:30.156Z,11.67
2018-07-11T00:27:58.416Z,10.70
2018-07-11T00:30:26.624Z,13.07
2018-07-11T00:32:54.817Z,12.07
2018-07-11T00:35:23.121Z,13.03
2018-07-11T00:37:51.472Z,12.50
2018-07-11T00:40:19.732Z,13.57
2018-07-11T00:42:47.944Z,12.20
2018-07-11T00:45:16.141Z,10.97
2018-07-11T00:47:44.361Z,11.27
2018-07-11T00:50:12.598Z,11.37
2018-07-11T00:52:40.785Z,9.83
2018-07-11T00:55:08.983Z,9.47
2018-07-11T00:57:37.544Z,10.17
2018-07-11T01:00:05.735Z,11.60
2018-07-11T01:02:33.929Z,10.97
2018-07-11T01:05:02.147Z,10.37
2018-07-11T01:07:30.517Z,11.60
2018-07-11T01:09:58.749Z,10.23
2018-07-11T01:12:26.989Z,10.77
2018-07-11T01:14:55.150Z,10.70
2018-07-11T01:17:29.096Z,11.40
2018-07-11T01:19:57.353Z,11.37
2018-07-11T01:22:25.529Z,11.00
2018-07-11T01:24:53.954Z,10.33
2018-07-11T01:27:22.384Z,11.43
2018-07-11T01:29:51.250Z,10.67
2018-07-11T01:32:19.466Z,10.10
2018-07-11T01:34:47.705Z,10.47
2018-07-11T01:37:15.895Z,11.10
2018-07-11T01:39:44.103Z,11.23
2018-07-11T01:42:12.320Z,12.17
2018-07-11T01:44:40.541Z,10.87
2018-07-11T01:47:08.750Z,9.33
2018-07-11T01:49:36.978Z,9.90
2018-07-11T01:52:16.551Z,9.83
2018-07-11T01:54:44.770Z,10.73
2018-07-11T01:57:12.945Z,10.57
2018-07-11T01:59:41.172Z,11.37
2018-07-11T02:02:09.393Z,10.07
2018-07-11T02:04:39.819Z,9.40
2018-07-11T02:07:08.582Z,9.50
2018-07-11T02:09:36.853Z,9.20
2018-07-11T02:12:05.373Z,9.90
2018-07-11T02:14:34.667Z,10.70
2018-07-11T02:17:02.902Z,9.53
2018-07-11T02:19:31.092Z,8.30
2018-07-11T02:21:59.300Z,9.77
2018-07-11T02:24:27.472Z,9.50
2018-07-11T02:26:55.833Z,9.43
2018-07-11T02:29:24.390Z,8.63
2018-07-11T02:31:52.658Z,9.73
2018-07-11T02:34:26.133Z,8.67
2018-07-11T02:36:54.305Z,9.17
2018-07-11T02:39:22.454Z,8.67
2018-07-11T02:41:50.665Z,9.27
2018-07-11T02:44:18.912Z,7.57
2018-07-11T02:46:52.554Z,8.90
2018-07-11T02:49:20.728Z,6.87
2018-07-11T02:51:48.906Z,7.13
2018-07-11T02:54:17.533Z,7.53
2018-07-11T02:56:45.818Z,8.77
2018-07-11T02:59:14.059Z,7.33
2018-07-11T03:01:42.266Z,8.70
2018-07-11T03:04:10.544Z,8.23
2018-07-11T03:06:38.803Z,8.93
2018-07-11T03:09:07.162Z,8.20
2018-07-11T03:11:35.372Z,9.30
2018-07-11T03:14:03.600Z,8.83
2018-07-11T03:16:31.776Z,9.70
2018-07-11T03:19:00.100Z,9.43
2018-07-11T03:21:28.372Z,9.90
2018-07-11T03:23:56.619Z,8.47
2018-07-11T03:26:24.952Z,9.23
2018-07-11T03:28:53.229Z,9.13
2018-07-11T03:31:21.466Z,10.17
2018-07-11T03:33:49.608Z,8.53
2018-07-11T03:36:17.888Z,13.13
2018-07-11T03:38:46.246Z,18.67
2018-07-11T03:41:14.428Z,16.50
2018-07-11T03:43:42.657Z,10.63
2018-07-11T03:46:10.892Z,13.53
2018-07-11T03:48:39.328Z,15.33
2018-07-11T03:51:07.510Z,11.13
2018-07-11T03:53:35.785Z,12.20
2018-07-11T03:56:03.954Z,10.10
2018-07-11T03:58:32.212Z,10.50
2018-07-11T04:01:00.477Z,12.27
2018-07-11T04:03:28.622Z,11.47
2018-07-11T04:05:57.277Z,11.87
2018-07-11T04:08:25.488Z,9.80
2018-07-11T04:10:53.684Z,8.63
2018-07-11T04:13:21.873Z,9.83
2018-07-11T04:15:50.122Z,17.93
2018-07-11T04:18:34.723Z,10.73
2018-07-11T04:21:03.380Z,10.63
2018-07-11T04:23:31.654Z,9.83
2018-07-11T04:26:00.241Z,9.73
2018-07-11T04:28:29.365Z,10.70
2018-07-11T04:30:57.906Z,9.60
2018-07-11T04:33:26.306Z,10.00
2018-07-11T04:35:54.943Z,9.83
2018-07-11T04:38:23.646Z,10.40
2018-07-11T04:40:51.990Z,10.70
2018-07-11T04:43:20.480Z,9.47
2018-07-11T04:45:49.124Z,10.00
2018-07-11T04:48:18.712Z,12.33
2018-07-11T04:50:47.644Z,11.03
2018-07-11T04:53:22.042Z,11.53
2018-07-11T04:56:01.431Z,11.10
2018-07-11T04:58:30.249Z,16.43
2018-07-11T05:00:58.621Z,8.80
2018-07-11T05:03:27.354Z,9.73
2018-07-11T05:05:55.881Z,9.53
2018-07-11T05:08:24.884Z,17.73
2018-07-11T05:10:53.313Z,9.40
2018-07-11T05:13:21.863Z,9.50
2018-07-11T05:15:50.070Z,9.50
2018-07-11T05:18:18.343Z,9.07
2018-07-11T05:20:47.042Z,9.23
2018-07-11T05:23:15.677Z,9.43
2018-07-11T05:25:44.131Z,9.23
2018-07-11T05:28:12.311Z,9.20
2018-07-11T05:30:40.623Z,9.93
2018-07-11T05:33:08.812Z,9.27
2018-07-11T05:35:37.114Z,10.93
2018-07-11T05:38:05.398Z,9.20
2018-07-11T05:40:34.191Z,8.80
2018-07-11T05:43:02.432Z,8.67
2018-07-11T05:45:30.681Z,8.27
2018-07-11T05:47:58.903Z,8.07
2018-07-11T05:50:27.133Z,7.97
2018-07-11T05:52:55.407Z,11.30
2018-07-11T05:55:24.703Z,9.53
2018-07-11T05:57:52.918Z,8.63
2018-07-11T06:00:21.128Z,9.77
2018-07-11T06:02:49.400Z,8.90
2018-07-11T06:05:17.702Z,8.57
2018-07-11T06:07:45.956Z,7.40
2018-07-11T06:10:14.174Z,8.10
2018-07-11T06:12:42.386Z,7.80
2018-07-11T06:15:10.722Z,7.20
2018-07-11T06:17:38.934Z,7.92
2018-07-11T06:20:07.142Z,6.33
2018-07-11T06:22:36.225Z,6.45
2018-07-11T06:25:04.437Z,6.85
2018-07-11T06:27:32.710Z,10.23
2018-07-11T06:30:00.985Z,7.23
2018-07-11T06:32:30.756Z,5.87
2018-07-11T06:34:59.037Z,6.03
2018-07-11T06:37:27.237Z,7.10
2018-07-11T06:39:55.533Z,5.30
2018-07-11T06:42:23.847Z,5.35
2018-07-11T06:44:52.166Z,5.42
2018-07-11T06:47:21.017Z,4.50
2018-07-11T06:49:49.398Z,3.67
2018-07-11T06:52:17.999Z,3.70
2018-07-11T06:54:46.233Z,3.62
2018-07-11T06:57:14.518Z,14.53
2018-07-11T06:59:42.780Z,8.20
2018-07-11T07:02:11.061Z,3.77
2018-07-11T07:04:39.280Z,17.57
2018-07-11T07:07:07.489Z,4.30
2018-07-11T07:09:35.805Z,3.65
2018-07-11T07:12:04.168Z,6.25
2018-07-11T07:14:32.406Z,4.55
2018-07-11T07:17:00.661Z,3.90
2018-07-11T07:19:30.892Z,5.60
2018-07-11T07:21:59.523Z,3.08
2018-07-11T07:24:28.133Z,3.50
2018-07-11T07:27:01.400Z,2.80
2018-07-11T07:29:29.774Z,3.00
2018-07-11T07:31:57.979Z,2.70
2018-07-11T07:34:26.256Z,2.27
2018-07-11T07:36:54.518Z,2.72
2018-07-11T07:39:22.821Z,1.90
2018-07-11T07:41:51.058Z,2.22
2018-07-11T07:44:19.377Z,2.30
2018-07-11T07:46:53.049Z,1.98
2018-07-11T07:49:21.243Z,1.80
2018-07-11T07:51:49.598Z,2.12
2018-07-11T07:54:17.899Z,2.27
2018-07-11T07:56:46.138Z,4.37
2018-07-11T07:59:14.703Z,2.33
2018-07-11T08:01:42.929Z,4.03
2018-07-11T08:04:12.002Z,4.30
2018-07-11T08:06:40.353Z,4.12
2018-07-11T08:09:08.568Z,5.45
2018-07-11T08:11:36.832Z,6.75
2018-07-11T08:14:05.141Z,3.50
2018-07-11T08:16:33.377Z,4.62
2018-07-11T08:19:01.809Z,4.35
2018-07-11T08:21:30.100Z,4.40
2018-07-11T08:24:09.717Z,8.90
2018-07-11T08:26:49.217Z,4.30
2018-07-11T08:31:36.527Z,6.37
2018-07-11T08:34:20.367Z,3.70
2018-07-11T08:36:58.183Z,3.12
2018-07-11T08:39:39.044Z,4.45
2018-07-11T08:44:22.499Z,4.92
2018-07-11T08:47:07.548Z,3.80
2018-07-11T08:51:55.688Z,3.22
2018-07-11T08:54:43.917Z,3.58
2018-07-11T08:57:22.290Z,4.37
2018-07-11T09:00:07.890Z,4.33
2018-07-11T09:02:47.938Z,6.37
2018-07-11T09:05:44.057Z,10.70
2018-07-11T09:08:23.517Z,3.83
2018-07-11T09:11:00.331Z,3.00
2018-07-11T09:13:43.284Z,4.50
2018-07-11T09:16:21.099Z,4.70
2018-07-11T09:18:59.571Z,5.37
2018-07-11T09:21:51.394Z,3.30
2018-07-11T09:24:41.701Z,2.72
2018-07-11T09:27:10.236Z,3.05
2018-07-11T09:29:39.137Z,3.40
2018-07-11T09:32:07.408Z,5.95
2018-07-11T09:34:35.649Z,3.95
2018-07-11T09:37:03.851Z,4.00
2018-07-11T09:39:32.140Z,3.58
2018-07-11T09:42:00.486Z,3.50
2018-07-11T09:44:28.806Z,3.47
2018-07-11T09:46:57.272Z,3.72
2018-07-11T09:49:26.266Z,6.80
2018-07-11T09:51:55.016Z,3.70
2018-07-11T09:54:23.209Z,2.90
2018-07-11T09:56:51.567Z,3.70
2018-07-11T09:59:20.095Z,5.00
2018-07-11T10:01:48.385Z,7.28
2018-07-11T10:04:16.772Z,4.70
2018-07-11T10:06:45.102Z,3.10
2018-07-11T10:09:13.359Z,5.35
2018-07-11T10:11:41.566Z,3.20
2018-07-11T10:14:10.031Z,2.87
2018-07-11T10:16:38.263Z,3.45
2018-07-11T10:19:06.509Z,3.35
2018-07-11T10:21:35.375Z,2.83
2018-07-11T10:24:03.607Z,3.27
2018-07-11T10:26:31.805Z,2.90
2018-07-11T10:29:00.587Z,2.83
2018-07-11T10:31:29.367Z,3.08
2018-07-11T10:33:57.658Z,2.85
2018-07-11T10:36:25.842Z,3.15
2018-07-11T10:38:54.030Z,3.60
2018-07-11T10:41:22.304Z,6.47
2018-07-11T10:43:50.876Z,5.85
2018-07-11T10:46:19.055Z,3.83
2018-07-11T10:48:48.171Z,5.65
2018-07-11T10:51:16.454Z,3.35
2018-07-11T10:53:44.702Z,3.67
2018-07-11T10:56:12.889Z,3.10
2018-07-11T10:58:41.241Z,3.30
2018-07-11T11:01:09.503Z,3.60
2018-07-11T11:03:37.764Z,3.15
2018-07-11T11:06:05.993Z,3.75
2018-07-11T11:08:34.181Z,3.10
2018-07-11T11:11:02.382Z,3.08
2018-07-11T11:13:30.612Z,3.05
2018-07-11T11:15:58.873Z,3.62
2018-07-11T11:18:27.065Z,3.22
2018-07-11T11:20:56.096Z,3.47
2018-07-11T11:23:24.405Z,2.83
2018-07-11T11:25:52.693Z,3.20
2018-07-11T11:28:20.896Z,3.40
2018-07-11T11:30:49.061Z,2.87
2018-07-11T11:33:17.346Z,3.30
2018-07-11T11:35:45.741Z,4.40
2018-07-11T11:38:13.872Z,2.98
2018-07-11T11:40:42.128Z,3.77
2018-07-11T11:43:10.387Z,3.05
2018-07-11T11:45:38.897Z,4.25
2018-07-11T11:48:07.076Z,3.30
2018-07-11T11:50:35.281Z,3.33
2018-07-11T11:53:03.603Z,3.12
2018-07-11T11:55:31.810Z,2.85
2018-07-11T11:58:00.107Z,6.83
2018-07-11T12:00:28.337Z,3.98
2018-07-11T12:02:56.582Z,3.00
2018-07-11T12:05:24.770Z,3.77
2018-07-11T12:07:53.109Z,3.23
2018-07-11T12:10:21.362Z,3.67
2018-07-11T12:12:49.589Z,3.30
2018-07-11T12:15:17.938Z,4.47
2018-07-11T12:17:46.118Z,3.10
2018-07-11T12:20:14.293Z,4.23
2018-07-11T12:22:42.751Z,5.65
2018-07-11T12:25:10.977Z,3.98
2018-07-11T12:27:39.992Z,3.30
2018-07-11T12:30:08.184Z,2.77
2018-07-11T12:32:36.562Z,2.85
2018-07-11T12:35:05.944Z,3.00
2018-07-11T12:37:34.168Z,3.40
2018-07-11T12:40:02.577Z,3.23
2018-07-11T12:42:30.775Z,3.00
2018-07-11T12:47:38.871Z,3.40
2018-07-11T12:50:07.713Z,3.40
2018-07-11T12:52:36.081Z,3.40
2018-07-11T12:55:04.253Z,5.10
2018-07-11T12:57:32.543Z,3.23
2018-07-11T13:00:00.796Z,3.67
2018-07-11T13:02:29.023Z,7.83
2018-07-11T13:04:57.281Z,3.40
2018-07-11T13:07:25.800Z,4.63
2018-07-11T13:09:54.089Z,2.70
2018-07-11T13:12:22.333Z,2.97
2018-07-11T13:14:50.528Z,2.67
2018-07-11T13:17:18.778Z,3.10
2018-07-11T13:19:47.098Z,3.40
2018-07-11T13:22:15.344Z,3.83
2018-07-11T13:24:43.604Z,2.83
2018-07-11T13:27:11.854Z,3.80
2018-07-11T13:29:40.057Z,3.20
2018-07-11T13:32:08.296Z,4.47
2018-07-11T13:34:36.857Z,6.03
2018-07-11T13:37:05.041Z,4.20
2018-07-11T13:39:33.232Z,5.37
2018-07-11T13:42:02.023Z,4.92
2018-07-11T13:44:30.196Z,3.23
2018-07-11T13:46:58.432Z,9.13
2018-07-11T13:49:26.844Z,3.50
2018-07-11T13:51:55.068Z,3.00
2018-07-11T13:54:23.273Z,10.23
2018-07-11T13:56:51.561Z,4.17
2018-07-11T13:59:19.909Z,4.07
2018-07-11T14:01:48.362Z,3.37
2018-07-11T14:04:16.720Z,4.37
2018-07-11T14:06:44.955Z,3.53
2018-07-11T14:09:13.142Z,3.30
2018-07-11T14:11:41.354Z,2.73
2018-07-11T14:14:09.668Z,3.10
2018-07-11T14:16:37.775Z,3.00
2018-07-11T14:19:06.126Z,2.80
2018-07-11T14:21:34.342Z,3.27
2018-07-11T14:24:02.799Z,3.43
2018-07-11T14:26:32.712Z,3.23
2018-07-11T14:29:02.864Z,3.23
2018-07-11T14:31:35.447Z,3.20
2018-07-11T14:34:05.898Z,3.27
2018-07-11T14:36:34.571Z,8.97
2018-07-11T14:39:03.242Z,4.20
2018-07-11T14:41:31.502Z,3.63
2018-07-11T14:44:00.284Z,5.93
2018-07-11T14:46:29.536Z,3.50
2018-07-11T14:48:58.858Z,4.30
2018-07-11T14:51:27.285Z,4.00
2018-07-11T14:53:56.683Z,8.33
2018-07-11T14:56:24.897Z,8.13
2018-07-11T14:58:55.571Z,5.93
2018-07-11T15:01:24.297Z,8.43
2018-07-11T15:03:52.537Z,8.13
2018-07-11T15:06:21.041Z,9.90
2018-07-11T15:08:49.461Z,6.63
2018-07-11T15:11:17.598Z,8.17
2018-07-11T15:13:45.888Z,7.93
2018-07-11T15:16:14.308Z,6.60
2018-07-11T15:18:42.557Z,5.10
2018-07-11T15:21:10.880Z,6.23
2018-07-11T15:23:39.089Z,5.87
2018-07-11T15:26:07.358Z,7.43
2018-07-11T15:28:35.600Z,6.40
2018-07-11T15:31:03.835Z,5.53
2018-07-11T15:33:32.084Z,6.10
2018-07-11T15:36:00.584Z,14.33
2018-07-11T15:38:29.036Z,15.13
2018-07-11T15:40:58.987Z,5.33
2018-07-11T15:43:28.080Z,3.87
2018-07-11T15:45:56.772Z,4.40
2018-07-11T15:48:25.050Z,7.97
2018-07-11T15:50:54.106Z,5.23
2018-07-11T15:53:23.238Z,4.70
2018-07-11T15:55:52.446Z,4.60
2018-07-11T15:58:21.634Z,5.63
2018-07-11T16:00:50.205Z,7.40
2018-07-11T16:03:19.399Z,5.87
2018-07-11T16:05:48.263Z,4.60
2018-07-11T16:08:19.624Z,4.33
2018-07-11T16:10:49.574Z,6.43
2018-07-11T16:13:18.643Z,5.97
2018-07-11T16:15:47.294Z,4.97
2018-07-11T16:18:16.995Z,24.67
2018-07-11T16:20:46.627Z,10.67
2018-07-11T16:23:14.992Z,4.13
2018-07-11T16:25:43.981Z,3.37
2018-07-11T16:28:12.376Z,4.13
2018-07-11T16:30:40.718Z,3.70
2018-07-11T16:33:08.931Z,6.37
2018-07-11T16:35:37.204Z,3.80
2018-07-11T16:38:05.484Z,3.90
2018-07-11T16:40:33.944Z,4.23
2018-07-11T16:43:03.090Z,5.73
2018-07-11T16:45:31.763Z,5.20
2018-07-11T16:48:00.389Z,4.83
2018-07-11T16:50:28.653Z,9.93
2018-07-11T16:52:57.681Z,4.73
2018-07-11T16:55:26.758Z,4.83
2018-07-11T16:57:55.754Z,7.37
2018-07-11T17:00:33.755Z,4.33
2018-07-11T17:03:06.057Z,6.90
2018-07-11T17:05:50.293Z,5.30
2018-07-11T17:08:28.394Z,7.20
2018-07-11T17:11:06.211Z,7.60
2018-07-11T17:13:34.478Z,4.07
2018-07-11T17:16:03.663Z,19.67
2018-07-11T17:18:39.409Z,6.57
2018-07-11T17:21:09.521Z,5.30
2018-07-11T17:23:44.487Z,4.30
2018-07-11T17:26:12.772Z,6.03
2018-07-11T17:28:42.157Z,5.60
2018-07-11T17:31:10.325Z,4.73
2018-07-11T17:33:38.601Z,4.40
2018-07-11T17:36:06.822Z,5.17
2018-07-11T17:38:35.207Z,4.97
2018-07-11T17:41:04.846Z,5.33
2018-07-11T17:43:34.160Z,23.87
2018-07-11T17:46:03.277Z,8.23
2018-07-11T17:48:45.526Z,7.57
2018-07-11T17:51:25.600Z,10.47
2018-07-11T17:53:55.466Z,19.10
2018-07-11T17:56:31.304Z,12.03
2018-07-11T17:59:00.604Z,4.70
2018-07-11T18:01:37.296Z,10.13
2018-07-11T18:04:16.830Z,13.37
2018-07-11T18:07:05.169Z,10.20
2018-07-11T18:09:41.267Z,9.97
2018-07-11T18:12:19.318Z,8.23
2018-07-11T18:15:27.139Z,6.40
2018-07-11T18:20:04.384Z,3.40
2018-07-11T18:24:42.522Z,2.53
2018-07-11T18:29:31.812Z,2.23
2018-07-11T18:32:14.259Z,4.53
2018-07-11T18:35:21.405Z,5.13
2018-07-11T18:37:53.559Z,4.37
2018-07-11T18:40:30.647Z,4.30
2018-07-11T18:43:24.831Z,4.10
2018-07-11T18:45:59.500Z,4.03
2018-07-11T18:50:41.956Z,15.70
2018-07-11T18:53:16.129Z,11.37
2018-07-11T18:56:05.439Z,6.53
2018-07-11T18:59:17.669Z,13.20
2018-07-11T19:01:54.832Z,9.70
2018-07-11T19:04:34.633Z,11.53
2018-07-11T19:07:11.805Z,8.40
2018-07-11T19:09:44.808Z,7.93
2018-07-11T19:12:21.926Z,8.50
2018-07-11T19:14:59.112Z,8.67
2018-07-11T19:18:40.484Z,6.37
2018-07-11T19:21:13.800Z,4.27
2018-07-11T19:24:04.620Z,7.83
2018-07-11T19:27:45.258Z,8.70
2018-07-11T19:30:18.385Z,7.13
2018-07-11T19:32:58.522Z,7.93
2018-07-11T19:35:41.534Z,25.70
2018-07-11T19:38:44.059Z,13.53
2018-07-11T19:41:22.128Z,15.37
2018-07-11T19:44:59.548Z,11.90
2018-07-11T19:47:45.890Z,5.67
2018-07-11T19:52:33.916Z,7.53
2018-07-11T19:57:24.573Z,5.53
2018-07-11T19:59:53.033Z,6.37
2018-07-11T20:02:21.431Z,9.80
2018-07-11T20:04:50.671Z,9.80
2018-07-11T20:07:19.220Z,7.57
2018-07-11T20:09:47.653Z,11.40
2018-07-11T20:12:15.965Z,10.20
2018-07-11T20:14:44.306Z,10.53
2018-07-11T20:17:12.822Z,4.90
2018-07-11T20:19:41.129Z,4.03
2018-07-11T20:22:09.561Z,4.90
2018-07-11T20:24:37.872Z,11.40
2018-07-11T20:27:06.270Z,8.77
2018-07-11T20:29:34.528Z,9.93
2018-07-11T20:32:02.864Z,10.07
2018-07-11T20:34:37.662Z,9.43
2018-07-11T20:37:06.321Z,10.03
2018-07-11T20:39:34.707Z,6.63
2018-07-11T20:42:03.275Z,17.57
2018-07-11T20:44:32.000Z,12.33
2018-07-11T20:47:00.331Z,8.23
2018-07-11T20:49:34.212Z,7.73
2018-07-11T20:52:03.395Z,10.00
2018-07-11T20:54:31.672Z,0.00
2018-07-11T20:56:59.908Z,0.00
2018-07-11T20:59:39.607Z,0.00
2018-07-11T21:02:19.191Z,0.10
2018-07-11T21:05:35.051Z,0.10
2018-07-11T21:11:19.985Z,0.10
2018-07-11T21:13:56.174Z,0.10
2018-07-11T21:16:36.702Z,0.00
2018-07-11T21:19:07.353Z,0.07
2018-07-11T21:21:36.478Z,0.10
2018-07-11T21:24:05.830Z,0.10
2018-07-11T21:26:34.291Z,0.10
2018-07-11T21:29:02.709Z,0.00
2018-07-11T21:31:31.056Z,0.50
2018-07-11T21:33:59.304Z,0.00
2018-07-11T21:36:27.482Z,0.10
2018-07-11T21:38:55.671Z,0.10
2018-07-11T21:41:24.181Z,0.00
2018-07-11T21:43:52.574Z,0.00
2018-07-11T21:46:21.261Z,0.07
2018-07-11T21:48:49.565Z,0.00
2018-07-11T21:51:17.942Z,0.10
2018-07-11T21:53:46.312Z,0.10
2018-07-11T21:56:14.576Z,0.07
2018-07-11T21:58:42.863Z,0.10
2018-07-11T22:01:12.088Z,0.10
2018-07-11T22:03:40.641Z,0.10
2018-07-11T22:06:09.047Z,0.10
2018-07-11T22:08:37.362Z,0.10
2018-07-11T22:11:05.669Z,1.17
2018-07-11T22:13:33.937Z,0.10
2018-07-11T22:16:02.234Z,0.10
2018-07-11T22:18:32.311Z,0.10
2018-07-11T22:21:01.342Z,0.10
2018-07-11T22:23:28.871Z,0.10
2018-07-11T22:25:56.056Z,0.10
2018-07-11T22:28:23.392Z,0.10
2018-07-11T22:30:50.646Z,0.00
2018-07-11T22:33:17.962Z,0.00
2018-07-11T22:35:45.305Z,0.10
2018-07-11T22:38:12.925Z,0.10
2018-07-11T22:40:40.402Z,0.10
2018-07-11T22:43:07.755Z,0.10
2018-07-11T22:45:35.337Z,0.10
2018-07-11T22:48:02.849Z,0.10
2018-07-11T22:50:30.403Z,0.00
2018-07-11T22:52:57.692Z,0.10
2018-07-11T22:55:25.121Z,0.10
2018-07-11T22:57:52.649Z,0.10
2018-07-11T23:00:19.880Z,0.10
2018-07-11T23:02:47.128Z,0.20
2018-07-11T23:05:14.473Z,0.10
2018-07-11T23:07:41.759Z,0.10
2018-07-11T23:10:09.155Z,0.10
2018-07-11T23:12:36.411Z,0.10
2018-07-11T23:15:03.769Z,0.10
2018-07-11T23:17:31.067Z,0.00
2018-07-11T23:19:58.329Z,0.00
2018-07-11T23:22:25.644Z,0.00
2018-07-11T23:24:52.909Z,0.00
2018-07-11T23:27:20.177Z,0.10
2018-07-11T23:29:47.480Z,0.10
2018-07-11T23:32:14.807Z,0.10
2018-07-11T23:34:42.151Z,0.10
2018-07-11T23:37:09.422Z,0.10
2018-07-11T23:39:36.786Z,0.10
2018-07-11T23:42:04.094Z,0.10
2018-07-11T23:44:31.490Z,0.10
2018-07-11T23:46:58.901Z,0.10
2018-07-11T23:49:26.199Z,0.10
2018-07-11T23:51:53.512Z,0.07
2018-07-11T23:54:20.832Z,0.10
2018-07-11T23:56:48.257Z,0.10
2018-07-11T23:59:15.586Z,0.10
